This is the latest recevied weather packets stored in our database for station/object eb1ayw-13. If no packets are shown the sender has not sent any weather packets the latest 10 day(s).
| Time | Temp. | Humidity | Pressure | Rain* | Wind** | Luminosity | Snow |
|---|---|---|---|---|---|---|---|
| 1777906068 | 39.44° C | 16% | 1002 hPa | - | - | - | - |
| 1777905468 | 37.22° C | 17% | 1002.8 hPa | - | - | - | - |
| 1777904868 | 39.44° C | 16% | 1002.3 hPa | - | - | - | - |
| 1777904268 | 41.11° C | 14% | 1001.8 hPa | - | - | - | - |
| 1777903668 | 40.56° C | 15% | 1002 hPa | - | - | - | - |
| 1777903068 | 40.56° C | 15% | 1001.9 hPa | - | - | - | - |
| 1777902469 | 45.56° C | 10% | 1000.5 hPa | - | - | - | - |
| 1777901868 | 43.89° C | 11% | 1000.7 hPa | - | - | - | - |
| 1777901268 | 48.33° C | 9% | 999.7 hPa | - | - | - | - |
| 1777900668 | 45° C | 11% | 1000.5 hPa | - | - | - | - |
| 1777900068 | 46.11° C | 11% | 1000.3 hPa | - | - | - | - |
| 1777899468 | 45° C | 11% | 1000.6 hPa | - | - | - | - |
| 1777898868 | 43.89° C | 12% | 1001.1 hPa | - | - | - | - |
| 1777898268 | 44.44° C | 12% | 1000.9 hPa | - | - | - | - |
| 1777897668 | 47.78° C | 10% | 1000.3 hPa | - | - | - | - |
| 1777897068 | 45° C | 11% | 1001 hPa | - | - | - | - |
| 1777896468 | 44.44° C | 11% | 1001.3 hPa | - | - | - | - |
| 1777895868 | 46.11° C | 11% | 1001 hPa | - | - | - | - |
| 1777895268 | 47.78° C | 10% | 1000.8 hPa | - | - | - | - |
| 1777894668 | 43.89° C | 12% | 1001.8 hPa | - | - | - | - |
| 1777894068 | 42.22° C | 12% | 1002.2 hPa | - | - | - | - |
| 1777893468 | 43.33° C | 12% | 1002.1 hPa | - | - | - | - |
| 1777892868 | 43.33° C | 12% | 1002.1 hPa | - | - | - | - |
| 1777892268 | 46.67° C | 10% | 1001.4 hPa | - | - | - | - |
| 1777891668 | 45.56° C | 11% | 1001.7 hPa | - | - | - | - |
* Rain since midnight (hover to see other rain measurements)
** Current wind speed in m/s (hover to see current wind gust speed)